createdAt,value
2018-05-19T00:01:04.010Z,17.31
2018-05-19T00:03:33.715Z,17.26
2018-05-19T00:06:02.781Z,17.08
2018-05-19T00:08:32.544Z,17.01
2018-05-19T00:11:02.881Z,16.83
2018-05-19T00:13:31.949Z,16.82
2018-05-19T00:16:02.843Z,16.71
2018-05-19T00:18:31.948Z,16.64
2018-05-19T00:21:00.788Z,16.61
2018-05-19T00:23:30.559Z,16.64
2018-05-19T00:25:59.688Z,16.63
2018-05-19T00:28:28.530Z,16.59
2018-05-19T00:30:58.263Z,16.61
2018-05-19T00:33:27.081Z,16.66
2018-05-19T00:35:56.989Z,16.68
2018-05-19T00:38:25.829Z,16.70
2018-05-19T00:40:54.674Z,16.62
2018-05-19T00:43:23.459Z,16.55
2018-05-19T00:45:53.583Z,16.56
2018-05-19T00:48:22.507Z,16.63
2018-05-19T00:50:52.284Z,16.64
2018-05-19T00:53:24.249Z,16.64
2018-05-19T00:55:54.272Z,16.65
2018-05-19T00:58:23.215Z,16.60
2018-05-19T01:00:53.082Z,16.58
2018-05-19T01:03:23.431Z,16.60
2018-05-19T01:05:53.312Z,16.60
2018-05-19T01:08:23.147Z,16.57
2018-05-19T01:10:52.024Z,16.56
2018-05-19T01:15:55.642Z,16.57
2018-05-19T01:18:24.712Z,16.57
2018-05-19T01:20:54.660Z,16.57
2018-05-19T01:25:58.774Z,16.56
2018-05-19T01:28:27.689Z,16.53
2018-05-19T01:33:30.667Z,16.55
2018-05-19T01:36:00.496Z,16.56
2018-05-19T01:38:30.690Z,16.65
2018-05-19T01:40:59.561Z,16.65
2018-05-19T01:43:29.884Z,16.72
2018-05-19T01:45:58.820Z,16.76
2018-05-19T01:48:27.921Z,16.81
2018-05-19T01:50:57.016Z,16.80
2018-05-19T01:53:28.272Z,16.75
2018-05-19T01:55:57.361Z,16.77
2018-05-19T01:58:27.277Z,16.79
2018-05-19T02:00:56.269Z,16.81
2018-05-19T02:03:25.370Z,16.79
2018-05-19T02:05:54.572Z,16.76
2018-05-19T02:08:24.210Z,16.83
2018-05-19T02:10:53.173Z,16.94
2018-05-19T02:13:23.226Z,16.92
2018-05-19T02:15:53.717Z,16.90
2018-05-19T02:18:22.564Z,16.90
2018-05-19T02:20:51.708Z,16.94
2018-05-19T02:23:22.748Z,17.06
2018-05-19T02:25:51.747Z,17.05
2018-05-19T02:28:20.739Z,17.09
2018-05-19T02:30:51.319Z,17.11
2018-05-19T02:33:21.284Z,17.18
2018-05-19T02:35:50.390Z,17.21
2018-05-19T02:38:19.371Z,17.30
2018-05-19T02:40:48.882Z,17.36
2018-05-19T02:43:17.981Z,17.48
2018-05-19T02:45:46.974Z,17.57
2018-05-19T02:48:16.086Z,17.65
2018-05-19T02:50:45.100Z,17.68
2018-05-19T02:53:14.902Z,17.73
2018-05-19T02:55:43.976Z,17.66
2018-05-19T02:58:12.964Z,17.67
2018-05-19T03:00:42.883Z,17.72
2018-05-19T03:03:12.900Z,17.54
2018-05-19T03:05:41.896Z,17.48
2018-05-19T03:08:11.765Z,17.54
2018-05-19T03:10:40.808Z,17.65
2018-05-19T03:13:10.164Z,17.76
2018-05-19T03:15:42.272Z,17.81
2018-05-19T03:18:11.269Z,17.92
2018-05-19T03:20:40.370Z,17.90
2018-05-19T03:23:10.075Z,17.99
2018-05-19T03:25:40.200Z,18.06
2018-05-19T03:28:09.300Z,18.12
2018-05-19T03:30:38.493Z,18.21
2018-05-19T03:33:07.628Z,18.38
2018-05-19T03:35:36.585Z,18.62
2018-05-19T03:38:05.689Z,19.01
2018-05-19T03:40:34.674Z,19.23
2018-05-19T03:43:03.503Z,19.18
2018-05-19T03:45:35.425Z,19.09
2018-05-19T03:48:04.353Z,19.06
2018-05-19T03:50:33.311Z,19.09
2018-05-19T03:53:02.510Z,19.11
2018-05-19T03:55:31.607Z,19.29
2018-05-19T03:58:12.443Z,19.34
2018-05-19T04:00:53.253Z,19.34
2018-05-19T04:03:23.136Z,19.31
2018-05-19T04:05:53.083Z,19.41
2018-05-19T04:08:22.826Z,19.51
2018-05-19T04:10:52.983Z,19.60
2018-05-19T04:13:22.013Z,19.69
2018-05-19T04:15:50.991Z,19.93
2018-05-19T04:18:21.851Z,20.03
2018-05-19T04:20:51.743Z,20.25
2018-05-19T04:23:20.750Z,20.64
2018-05-19T04:25:52.300Z,20.76
2018-05-19T04:28:21.400Z,20.91
2018-05-19T04:30:51.314Z,21.03
2018-05-19T04:33:22.754Z,21.23
2018-05-19T04:35:51.644Z,21.14
2018-05-19T04:38:20.651Z,21.20
2018-05-19T04:40:51.396Z,21.32
2018-05-19T04:43:21.304Z,21.43
2018-05-19T04:45:50.808Z,21.40
2018-05-19T04:48:19.739Z,21.29
2018-05-19T04:50:48.603Z,21.26
2018-05-19T04:53:17.384Z,21.74
2018-05-19T04:58:20.483Z,22.77
2018-05-19T05:00:49.264Z,23.53
2018-05-19T05:03:19.760Z,24.59
2018-05-19T05:05:48.600Z,25.39
2018-05-19T05:08:17.413Z,24.96
2018-05-19T05:10:49.079Z,24.17
2018-05-19T05:13:17.923Z,23.43
2018-05-19T05:15:56.523Z,22.81
2018-05-19T05:18:25.429Z,23.25
2018-05-19T05:20:54.283Z,23.36
2018-05-19T05:23:25.106Z,23.61
2018-05-19T05:25:53.912Z,24.04
2018-05-19T05:28:22.693Z,24.04
2018-05-19T05:30:51.518Z,23.48
2018-05-19T05:33:20.483Z,23.53
2018-05-19T05:35:49.375Z,23.21
2018-05-19T05:38:18.327Z,22.96
2018-05-19T05:40:47.252Z,22.74
2018-05-19T05:43:16.158Z,22.47
2018-05-19T05:45:45.129Z,22.25
2018-05-19T05:48:13.926Z,22.13
2018-05-19T05:50:42.801Z,22.01
2018-05-19T05:53:11.874Z,21.90
2018-05-19T05:55:40.811Z,21.76
2018-05-19T05:58:09.685Z,21.77
2018-05-19T06:00:38.570Z,21.56
2018-05-19T06:03:07.336Z,21.46
2018-05-19T06:05:36.234Z,21.36
2018-05-19T06:08:05.072Z,21.26
2018-05-19T06:10:33.857Z,21.23
2018-05-19T06:13:03.704Z,21.28
2018-05-19T06:15:32.569Z,21.27
2018-05-19T06:18:01.322Z,21.06
2018-05-19T06:20:30.220Z,21.00
2018-05-19T06:22:59.087Z,20.81
2018-05-19T06:25:27.954Z,20.89
2018-05-19T06:27:56.789Z,21.09
2018-05-19T06:30:28.245Z,21.18
2018-05-19T06:32:57.127Z,21.39
2018-05-19T06:35:25.986Z,21.80
2018-05-19T06:37:54.838Z,22.88
2018-05-19T06:40:23.658Z,23.80
2018-05-19T06:42:52.485Z,24.69
2018-05-19T06:45:21.385Z,25.14
2018-05-19T06:47:50.170Z,25.63
2018-05-19T06:50:19.031Z,24.77
2018-05-19T06:52:48.696Z,24.71
2018-05-19T06:55:17.555Z,24.18
2018-05-19T06:57:46.321Z,24.16
2018-05-19T07:00:16.949Z,22.53
2018-05-19T07:02:45.833Z,22.14
2018-05-19T07:05:14.636Z,22.29
2018-05-19T07:07:44.325Z,22.19
2018-05-19T07:10:13.103Z,22.70
2018-05-19T07:12:41.932Z,22.69
2018-05-19T07:15:11.635Z,23.58
2018-05-19T07:17:40.683Z,23.60
2018-05-19T07:20:10.192Z,23.41
2018-05-19T07:22:39.163Z,23.37
2018-05-19T07:25:07.952Z,22.79
2018-05-19T07:27:36.863Z,22.74
2018-05-19T07:30:05.681Z,23.26
2018-05-19T07:32:34.525Z,23.35
2018-05-19T07:35:03.424Z,23.68
2018-05-19T07:37:33.067Z,24.12
2018-05-19T07:40:01.926Z,25.15
2018-05-19T07:42:30.731Z,26.12
2018-05-19T07:45:01.370Z,27.45
2018-05-19T07:47:30.260Z,28.34
2018-05-19T07:49:59.120Z,28.47
2018-05-19T07:52:27.945Z,28.03
2018-05-19T07:54:56.722Z,27.55
2018-05-19T07:57:25.511Z,26.76
2018-05-19T07:59:54.486Z,25.90
2018-05-19T08:02:23.336Z,25.50
2018-05-19T08:04:52.108Z,25.31
2018-05-19T08:07:20.947Z,25.23
2018-05-19T08:12:25.553Z,25.59
2018-05-19T08:14:54.424Z,25.23
2018-05-19T08:17:25.084Z,25.26
2018-05-19T08:19:56.750Z,25.41
2018-05-19T08:22:25.545Z,25.78
2018-05-19T08:24:54.951Z,25.65
2018-05-19T08:27:25.661Z,24.90
2018-05-19T08:29:54.546Z,24.85
2018-05-19T08:32:23.331Z,24.90
2018-05-19T08:34:52.221Z,24.83
2018-05-19T08:37:22.978Z,24.81
2018-05-19T08:39:51.759Z,24.84
2018-05-19T08:42:20.626Z,24.63
2018-05-19T08:44:49.504Z,24.52
2018-05-19T08:47:18.294Z,24.85
2018-05-19T08:49:48.725Z,24.90
2018-05-19T08:52:17.704Z,24.21
2018-05-19T08:54:46.691Z,24.09
2018-05-19T08:57:15.552Z,24.58
2018-05-19T08:59:44.407Z,24.12
2018-05-19T09:02:13.189Z,24.70
2018-05-19T09:04:42.022Z,24.83
2018-05-19T09:07:10.850Z,24.88
2018-05-19T09:09:39.682Z,24.87
2018-05-19T09:12:08.912Z,24.66
2018-05-19T09:14:38.270Z,24.62
2018-05-19T09:17:07.432Z,24.86
2018-05-19T09:19:42.479Z,24.99
2018-05-19T09:22:11.487Z,24.88
2018-05-19T09:24:40.301Z,24.87
2018-05-19T09:27:10.830Z,24.58
2018-05-19T09:29:39.638Z,23.96
2018-05-19T09:32:08.464Z,23.92
2018-05-19T09:34:37.536Z,23.69
2018-05-19T09:37:06.357Z,23.76
2018-05-19T09:39:35.130Z,23.66
2018-05-19T09:42:04.043Z,23.78
2018-05-19T09:44:32.859Z,23.64
2018-05-19T09:47:01.887Z,23.51
2018-05-19T09:49:30.903Z,23.56
2018-05-19T09:51:59.794Z,23.78
2018-05-19T09:54:28.595Z,23.53
2018-05-19T09:56:58.608Z,23.55
2018-05-19T09:59:27.526Z,23.59
2018-05-19T10:01:56.389Z,23.71
2018-05-19T10:04:25.284Z,23.43
2018-05-19T10:06:54.104Z,23.26
2018-05-19T10:09:23.160Z,23.49
2018-05-19T10:17:02.201Z,23.80
2018-05-19T10:19:33.074Z,23.94
2018-05-19T10:22:01.886Z,24.14
2018-05-19T10:24:31.625Z,24.39
2018-05-19T10:27:00.534Z,24.46
2018-05-19T10:29:29.439Z,24.51
2018-05-19T10:34:32.753Z,25.03
2018-05-19T10:37:01.645Z,24.78
2018-05-19T10:39:32.058Z,24.78
2018-05-19T10:42:01.252Z,24.84
2018-05-19T10:44:31.404Z,24.82
2018-05-19T10:47:00.601Z,24.75
2018-05-19T10:49:29.915Z,24.79
2018-05-19T10:51:58.901Z,24.75
2018-05-19T10:54:27.903Z,24.90
2018-05-19T10:56:56.990Z,24.91
2018-05-19T10:59:25.991Z,25.01
2018-05-19T11:01:55.086Z,24.85
2018-05-19T11:04:24.239Z,25.03
2018-05-19T11:06:53.618Z,25.39
2018-05-19T11:09:22.457Z,25.98
2018-05-19T11:11:51.548Z,26.18
2018-05-19T11:14:20.413Z,26.71
2018-05-19T11:16:50.904Z,26.80
2018-05-19T11:19:19.705Z,26.64
2018-05-19T11:21:48.570Z,26.02
2018-05-19T11:24:18.914Z,26.00
2018-05-19T11:26:47.798Z,25.54
2018-05-19T11:29:16.997Z,25.39
2018-05-19T11:31:47.087Z,25.63
2018-05-19T11:34:16.029Z,25.74
2018-05-19T11:36:45.200Z,25.79
2018-05-19T11:39:15.965Z,25.25
2018-05-19T11:41:45.042Z,25.40
2018-05-19T11:44:14.280Z,25.24
2018-05-19T11:46:43.610Z,24.93
2018-05-19T11:49:12.576Z,24.51
2018-05-19T11:51:41.627Z,24.62
2018-05-19T11:54:11.620Z,24.71
2018-05-19T11:56:41.648Z,24.47
2018-05-19T11:59:10.756Z,24.54
2018-05-19T12:01:40.775Z,24.36
2018-05-19T12:04:09.773Z,24.40
2018-05-19T12:06:38.883Z,24.48
2018-05-19T12:09:08.636Z,24.48
2018-05-19T12:11:38.389Z,24.14
2018-05-19T12:14:07.527Z,23.93
2018-05-19T12:16:38.866Z,23.57
2018-05-19T12:19:08.626Z,23.69
2018-05-19T12:21:38.503Z,23.93
2018-05-19T12:24:07.569Z,24.16
2018-05-19T12:26:37.327Z,24.36
2018-05-19T12:29:06.355Z,24.67
2018-05-19T12:31:36.382Z,24.43
2018-05-19T12:34:05.409Z,24.06
2018-05-19T12:36:34.398Z,24.14
2018-05-19T12:39:04.129Z,24.19
2018-05-19T12:41:33.304Z,24.43
2018-05-19T12:44:02.292Z,24.41
2018-05-19T12:46:32.356Z,24.92
2018-05-19T12:49:01.358Z,25.17
2018-05-19T12:51:31.521Z,25.08
2018-05-19T12:56:35.241Z,24.86
2018-05-19T12:59:04.436Z,24.64
2018-05-19T13:01:33.743Z,23.80
2018-05-19T13:04:02.744Z,23.72
2018-05-19T13:06:31.924Z,24.03
2018-05-19T13:09:01.739Z,24.15
2018-05-19T13:11:30.736Z,24.08
2018-05-19T13:14:00.856Z,24.24
2018-05-19T13:16:29.956Z,24.19
2018-05-19T13:19:05.225Z,23.46
2018-05-19T13:21:34.752Z,23.12
2018-05-19T13:24:03.855Z,23.09
2018-05-19T13:26:33.097Z,22.79
2018-05-19T13:31:37.337Z,22.83
2018-05-19T13:34:06.740Z,22.76
2018-05-19T13:36:36.098Z,22.58
2018-05-19T13:39:06.316Z,22.52
2018-05-19T13:41:35.256Z,22.24
2018-05-19T13:44:04.635Z,22.10
2018-05-19T13:46:33.652Z,22.13
2018-05-19T13:49:03.798Z,22.13
2018-05-19T13:51:34.611Z,22.14
2018-05-19T13:54:03.605Z,22.16
2018-05-19T13:56:32.654Z,22.15
2018-05-19T13:59:02.642Z,21.99
2018-05-19T14:01:31.609Z,21.90
2018-05-19T14:04:00.916Z,21.84
2018-05-19T14:06:30.057Z,21.62
2018-05-19T14:08:59.112Z,21.45
2018-05-19T14:11:28.827Z,21.32
2018-05-19T14:13:57.922Z,21.31
2018-05-19T14:16:27.829Z,21.29
2018-05-19T14:18:57.446Z,21.23
2018-05-19T14:21:26.724Z,20.96
2018-05-19T14:23:55.835Z,20.71
2018-05-19T14:26:24.981Z,20.36
2018-05-19T14:28:54.971Z,20.20
2018-05-19T14:31:24.255Z,20.03
2018-05-19T14:33:54.069Z,19.90
2018-05-19T14:36:23.995Z,19.89
2018-05-19T14:38:53.005Z,19.85
2018-05-19T14:41:23.040Z,19.79
2018-05-19T14:43:52.923Z,19.76
2018-05-19T14:46:22.116Z,19.83
2018-05-19T14:48:51.199Z,19.97
2018-05-19T14:51:21.202Z,20.02
2018-05-19T14:53:50.150Z,20.03
2018-05-19T14:56:19.973Z,20.00
2018-05-19T14:58:49.915Z,19.99
2018-05-19T15:01:19.039Z,19.99
2018-05-19T15:03:48.240Z,19.93
2018-05-19T15:06:20.417Z,19.88
2018-05-19T15:08:49.376Z,19.92
2018-05-19T15:11:18.401Z,20.05
2018-05-19T15:16:21.830Z,20.32
2018-05-19T15:18:51.733Z,20.41
2018-05-19T15:21:22.387Z,20.37
2018-05-19T15:23:51.359Z,20.09
2018-05-19T15:26:20.555Z,19.99
2018-05-19T15:28:49.785Z,19.93
2018-05-19T15:31:18.890Z,19.79
2018-05-19T15:33:47.855Z,19.89
2018-05-19T15:36:19.918Z,19.92
2018-05-19T15:38:49.221Z,19.88
2018-05-19T15:41:18.317Z,19.78
2018-05-19T15:43:47.410Z,19.82
2018-05-19T15:46:16.338Z,19.92
2018-05-19T15:48:45.745Z,20.00
2018-05-19T15:51:16.518Z,20.00
2018-05-19T15:53:45.434Z,19.80
2018-05-19T15:56:15.104Z,19.49
2018-05-19T15:58:44.345Z,19.34
2018-05-19T16:01:13.450Z,19.34
2018-05-19T16:03:42.772Z,19.22
2018-05-19T16:06:11.941Z,19.25
2018-05-19T16:08:40.865Z,19.21
2018-05-19T16:11:10.651Z,19.35
2018-05-19T16:13:39.588Z,19.48
2018-05-19T16:16:10.064Z,19.62
2018-05-19T16:18:39.162Z,19.60
2018-05-19T16:21:09.341Z,19.47
2018-05-19T16:23:38.279Z,19.61
2018-05-19T16:26:07.491Z,19.79
2018-05-19T16:28:36.473Z,19.81
2018-05-19T16:31:06.105Z,19.78
2018-05-19T16:33:35.123Z,19.74
2018-05-19T16:36:05.148Z,19.72
2018-05-19T16:38:34.083Z,19.72
2018-05-19T16:41:03.076Z,19.70
2018-05-19T16:43:32.072Z,19.62
2018-05-19T16:46:01.309Z,19.63
2018-05-19T16:48:31.208Z,19.71
2018-05-19T16:51:00.215Z,19.69
2018-05-19T16:53:30.109Z,19.69
2018-05-19T16:55:59.393Z,19.73
2018-05-19T16:58:29.194Z,19.70
2018-05-19T17:00:58.309Z,19.73
2018-05-19T17:03:27.506Z,19.76
2018-05-19T17:05:57.033Z,19.81
2018-05-19T17:08:26.315Z,19.75
2018-05-19T17:10:55.352Z,19.66
2018-05-19T17:13:24.375Z,19.58
2018-05-19T17:15:53.453Z,19.46
2018-05-19T17:18:24.070Z,19.45
2018-05-19T17:20:55.217Z,19.37
2018-05-19T17:23:25.201Z,19.34
2018-05-19T17:25:55.024Z,19.30
2018-05-19T17:28:24.096Z,19.21
2018-05-19T17:30:53.223Z,19.18
2018-05-19T17:33:22.333Z,19.23
2018-05-19T17:38:26.587Z,19.18
2018-05-19T17:40:56.446Z,19.17
2018-05-19T17:43:26.372Z,19.14
2018-05-19T17:45:55.794Z,19.10
2018-05-19T17:48:25.069Z,19.05
2018-05-19T17:50:54.133Z,18.85
2018-05-19T17:53:23.335Z,18.84
2018-05-19T17:55:52.359Z,18.76
2018-05-19T17:58:21.467Z,18.69
2018-05-19T18:00:50.559Z,18.73
2018-05-19T18:03:19.546Z,18.73
2018-05-19T18:05:49.787Z,18.74
2018-05-19T18:08:18.867Z,18.72
2018-05-19T18:10:48.082Z,18.72
2018-05-19T18:13:17.448Z,18.67
2018-05-19T18:15:46.467Z,18.63
2018-05-19T18:18:15.548Z,18.48
2018-05-19T18:20:46.227Z,18.43
2018-05-19T18:23:15.396Z,18.31
2018-05-19T18:25:44.533Z,18.25
2018-05-19T18:28:13.668Z,18.30
2018-05-19T18:30:42.837Z,18.38
2018-05-19T18:33:11.883Z,18.41
2018-05-19T18:35:48.455Z,18.35
2018-05-19T18:38:17.563Z,18.31
2018-05-19T18:40:46.886Z,18.24
2018-05-19T18:45:51.853Z,18.36
2018-05-19T18:48:21.559Z,18.38
2018-05-19T18:50:50.611Z,18.37
2018-05-19T18:53:20.470Z,18.33
2018-05-19T18:55:49.972Z,18.26
2018-05-19T18:58:20.386Z,18.27
2018-05-19T19:03:27.559Z,18.17
2018-05-19T19:05:56.730Z,18.20
2018-05-19T19:08:26.791Z,18.22
2018-05-19T19:10:57.874Z,18.24
2018-05-19T19:13:26.841Z,18.19
2018-05-19T19:15:55.893Z,18.08
2018-05-19T19:20:59.237Z,18.07
2018-05-19T19:23:28.162Z,18.00
2018-05-19T19:25:57.059Z,17.97
2018-05-19T19:28:26.013Z,17.95
2018-05-19T19:30:55.207Z,17.94
2018-05-19T19:33:24.139Z,17.96
2018-05-19T19:35:53.964Z,18.00
2018-05-19T19:38:22.900Z,17.97
2018-05-19T19:40:51.900Z,17.98
2018-05-19T19:43:22.951Z,18.00
2018-05-19T19:45:52.034Z,18.05
2018-05-19T19:48:21.067Z,18.13
2018-05-19T19:50:50.136Z,18.18
2018-05-19T19:53:19.321Z,18.26
2018-05-19T19:55:48.549Z,18.32
2018-05-19T19:58:17.661Z,18.32
2018-05-19T20:00:46.681Z,18.33
2018-05-19T20:03:16.073Z,18.28
2018-05-19T20:05:48.004Z,18.26
2018-05-19T20:08:17.075Z,18.27
2018-05-19T20:10:46.266Z,18.24
2018-05-19T20:15:50.609Z,18.28
2018-05-19T20:18:19.837Z,18.29
2018-05-19T20:20:48.907Z,18.34
2018-05-19T20:23:18.181Z,18.36
2018-05-19T20:25:47.315Z,18.31
2018-05-19T20:28:18.451Z,18.30
2018-05-19T20:30:47.649Z,18.33
2018-05-19T20:33:16.744Z,18.39
2018-05-19T20:35:45.840Z,18.38
2018-05-19T20:38:14.838Z,18.36
2018-05-19T20:40:43.898Z,18.33
2018-05-19T20:43:13.037Z,18.20
2018-05-19T20:45:42.172Z,18.20
2018-05-19T20:48:11.990Z,18.23
2018-05-19T20:50:42.676Z,18.24
2018-05-19T20:53:12.024Z,18.30
2018-05-19T20:55:41.127Z,18.31
2018-05-19T20:58:11.935Z,18.34
2018-05-19T21:00:41.980Z,18.38
2018-05-19T21:03:11.109Z,18.40
2018-05-19T21:05:40.206Z,18.37
2018-05-19T21:08:09.220Z,18.32
2018-05-19T21:10:38.115Z,18.34
2018-05-19T21:13:13.757Z,18.36
2018-05-19T21:15:42.646Z,18.41
2018-05-19T21:18:11.751Z,18.45
2018-05-19T21:20:43.403Z,18.49
2018-05-19T21:23:14.338Z,18.51
2018-05-19T21:25:43.778Z,18.49
2018-05-19T21:28:13.551Z,18.46
2018-05-19T21:30:42.770Z,18.34
2018-05-19T21:33:11.957Z,18.16
2018-05-19T21:35:43.210Z,18.18
2018-05-19T21:38:12.229Z,18.13
2018-05-19T21:40:42.296Z,18.14
2018-05-19T21:45:46.149Z,18.18
2018-05-19T21:48:15.149Z,18.20
2018-05-19T21:50:44.818Z,18.11
2018-05-19T21:53:14.265Z,18.09
2018-05-19T21:55:43.353Z,17.99
2018-05-19T21:58:16.015Z,17.99
2018-05-19T22:00:45.366Z,17.95
2018-05-19T22:03:14.625Z,17.67
2018-05-19T22:05:43.578Z,17.55
2018-05-19T22:08:12.672Z,17.51
2018-05-19T22:10:42.649Z,17.62
2018-05-19T22:13:11.629Z,17.68
2018-05-19T22:15:41.062Z,17.73
2018-05-19T22:18:11.049Z,17.76
2018-05-19T22:20:41.029Z,17.76
2018-05-19T22:23:10.289Z,17.73
2018-05-19T22:25:39.178Z,17.69
2018-05-19T22:28:10.056Z,17.64
2018-05-19T22:30:39.478Z,17.63
2018-05-19T22:33:09.426Z,17.61
2018-05-19T22:35:40.030Z,17.57
2018-05-19T22:38:09.054Z,17.53
2018-05-19T22:40:38.761Z,17.50
2018-05-19T22:43:10.214Z,17.49
2018-05-19T22:45:40.148Z,17.45
2018-05-19T22:48:10.043Z,17.43
2018-05-19T22:50:39.815Z,17.41
2018-05-19T22:53:08.786Z,17.40
2018-05-19T22:55:38.169Z,17.37
2018-05-19T22:58:08.283Z,17.35
2018-05-19T23:00:37.303Z,17.34
2018-05-19T23:03:06.509Z,17.30
2018-05-19T23:08:10.783Z,17.23
2018-05-19T23:10:39.914Z,17.16
2018-05-19T23:13:08.877Z,17.19
2018-05-19T23:15:39.151Z,17.22
2018-05-19T23:18:09.040Z,17.18
2018-05-19T23:20:41.408Z,17.10
2018-05-19T23:23:10.406Z,17.13
2018-05-19T23:25:41.106Z,17.08
2018-05-19T23:28:11.055Z,17.05
2018-05-19T23:30:40.251Z,17.06
2018-05-19T23:33:09.241Z,17.05
2018-05-19T23:35:39.061Z,17.09
2018-05-19T23:38:08.153Z,17.12
2018-05-19T23:40:37.117Z,17.08
2018-05-19T23:43:07.741Z,17.08
2018-05-19T23:45:37.289Z,17.10
2018-05-19T23:48:06.281Z,17.03
2018-05-19T23:50:35.378Z,17.01
2018-05-19T23:53:04.474Z,16.96
2018-05-19T23:55:33.518Z,16.90
2018-05-19T23:58:02.500Z,16.92
